Flugplatz Langenberg bei Hattenbach (UL)

Hier findest Du alle Informationen zum Flugplatz Langenberg bei Hattenbach (UL).

Informationen für Piloten zum Flugplatz Langenberg bei Hattenbach

Hier findest Du alle relevanten Informationen, die Du als Pilot benötigst, um Langenberg bei Hattenbach anzufliegen.

Flugplatz: Langenberg bei Hattenbach ICAO-Code: UL Flugplatz
Frequenz Turm: 123,500 Mhz GAFOR Gebiet: -
Frequenz Ground: 123,500 Mhz Mogas: nein
Platzrunde: N 0 ft Landegebühr: -
Platzhöhe: Sunrise: 07:10 Uhr UTC
Pisten: 02/20 - 880 m x 30 m, GRAS Sunset: 15:18 Uhr UTC

Flugwetter am Flugplatz Langenberg bei Hattenbach

Die METAR Information stammen aus EDVK (69.34 km entfernt).

METAR Code:
2022/10/28 08:20
EDVK 280820Z 22009KT 180V270 CAVOK 21/12 Q1020

Flugschulen am Flugplatz Langenberg bei Hattenbach

Am Flugplatz Langenberg bei Hattenbach gibt es leider keine Flugschule.

Benachbarte Flugplätze und Flugschulen

Es gibt 13 weitere Flugplätze in einem Umkreis von 50 km um den Flugplatz Langenberg bei Hattenbach.

Jetzt anmelden

Passwort vergessen

Umfrage Archiv

Sendet Ihr ADS-B und/oder FLARM?

Ja
84.6 %
Nein
15.4 %
Stimmen: 254 | Diskussion
Anzeige: Roland Aircraft
Statistik Alle Mitglieder

Aktuell sind 76 Besucher online, davon 2 Mitglieder und 74 Gäste.


Mitglieder online:
Nordex  Heli 

Anzeige: ULPower Aero Engines Anzeige: EasyVFR